Time;durP1;ratioP1;P1;durP2;ratioP2;P2;SDS_P1;SDS_P2;PMS_P1;PMS_P2;Temp;Humidity;BMP_temperature;BMP_pressure;BME280_temperature;BME280_humidity;BME280_pressure;Samples;Min_cycle;Max_cycle;Signal;HPM_P1;HPM_P2
2023/06/24 00:01:42;;;;;;;;;;;;;;;24.35;65.88;101757.75;4983336;28;4091;-69
2023/06/24 00:04:08;;;;;;;;;;;;;;;24.34;66.12;101756.28;4981698;28;4129;-68
2023/06/24 00:06:36;;;;;;;;;;;;;;;24.34;66.13;101764.97;4982377;28;4130;-68
2023/06/24 00:09:03;;;;;;;;;;;;;;;24.34;66.12;101762.06;4981284;28;4503;-69
2023/06/24 00:11:30;;;;;;;;;;;;;;;24.35;66.11;101757.75;4983501;28;4191;-69
2023/06/24 00:13:56;;;;;;;;;;;;;;;24.35;66.10;101763.53;4983587;28;4214;-70
2023/06/24 00:16:26;;;;;;;;;;;;;;;24.34;66.07;101762.81;4987300;28;4145;-69
2023/06/24 00:18:58;;;;;;;;;;;;;;;24.35;65.98;101761.41;4983054;28;4573;-69
2023/06/24 00:21:29;;;;;;;;;;;;;;;24.36;65.82;101762.16;4983425;28;4288;-68
2023/06/24 00:23:56;;;;;;;;;;;;;;;24.36;65.93;101767.94;4989515;28;4157;-67
2023/06/24 00:26:22;;;;;;;;;;;;;;;24.36;66.24;101767.94;4990616;28;4034;-68
2023/06/24 00:28:49;;;;;;;;;;;;;;;24.36;65.87;101773.72;4989292;28;3988;-69
2023/06/24 00:31:16;;;;;;;;;;;;;;;24.34;66.15;101782.31;4986572;28;4463;-69
2023/06/24 00:33:42;;;;;;;;;;;;;;;24.34;65.84;101777.28;4993480;28;3928;-70
2023/06/24 00:36:11;;;;;;;;;;;;;;;24.33;65.87;101775.78;5005816;28;4030;-69
2023/06/24 00:38:38;;;;;;;;;;;;;;;24.34;66.05;101779.44;5005971;28;4122;-69
2023/06/24 00:41:04;;;;;;;;;;;;;;;24.34;65.88;101782.31;4987131;28;4055;-69
2023/06/24 00:43:31;;;;;;;;;;;;;;;24.33;65.75;101780.84;4969871;28;4396;-68
2023/06/24 00:45:57;;;;;;;;;;;;;;;24.34;66.03;101783.06;4994541;28;4257;-68
2023/06/24 00:48:24;;;;;;;;;;;;;;;24.33;65.85;101783.75;5001998;28;4308;-69
2023/06/24 00:50:51;;;;;;;;;;;;;;;24.33;65.98;101786.63;4987624;28;4552;-69
2023/06/24 00:53:17;;;;;;;;;;;;;;;24.32;65.90;101788.03;4986536;28;4223;-69
2023/06/24 00:55:45;;;;;;;;;;;;;;;24.32;66.04;101782.97;5001427;28;4246;-69
2023/06/24 00:58:15;;;;;;;;;;;;;;;24.32;66.13;101796.69;4987019;28;4122;-68
2023/06/24 01:00:42;;;;;;;;;;;;;;;24.31;66.05;101790.19;4989960;28;4304;-69
2023/06/24 01:03:09;;;;;;;;;;;;;;;24.31;66.15;101786.53;4991652;28;4562;-68
2023/06/24 01:05:37;;;;;;;;;;;;;;;24.29;66.01;101787.19;4988559;28;4181;-69
2023/06/24 01:08:03;;;;;;;;;;;;;;;24.31;66.15;101783.66;4988115;28;4174;-68
2023/06/24 01:10:29;;;;;;;;;;;;;;;24.32;65.92;101785.13;4989673;28;4153;-69
2023/06/24 01:12:56;;;;;;;;;;;;;;;24.32;66.22;101780.06;4986369;28;4013;-69
2023/06/24 01:15:22;;;;;;;;;;;;;;;24.35;66.08;101780.91;4985960;28;4215;-70
2023/06/24 01:17:55;;;;;;;;;;;;;;;24.32;66.45;101770.66;4985250;28;4134;-70
2023/06/24 01:20:30;;;;;;;;;;;;;;;24.32;66.29;101773.53;4989830;28;4124;-68
2023/06/24 01:23:15;;;;;;;;;;;;;;;24.33;66.43;101780.84;4989541;28;3974;-68
2023/06/24 01:25:48;;;;;;;;;;;;;;;24.32;66.35;101773.53;5003699;28;4065;-69
2023/06/24 01:28:17;;;;;;;;;;;;;;;24.31;66.51;101774.97;4982531;28;4172;-69
2023/06/24 01:30:54;;;;;;;;;;;;;;;24.31;66.68;101781.50;4996018;28;4058;-69
2023/06/24 01:33:25;;;;;;;;;;;;;;;24.33;66.11;101778.69;4985881;28;4026;-69
2023/06/24 01:35:52;;;;;;;;;;;;;;;24.33;66.66;101783.75;4998082;28;4247;-68
2023/06/24 01:38:22;;;;;;;;;;;;;;;24.33;66.49;101777.94;5002169;28;4063;-68
2023/06/24 01:40:49;;;;;;;;;;;;;;;24.31;66.61;101775.69;4993001;28;4150;-69
2023/06/24 01:43:15;;;;;;;;;;;;;;;24.33;66.31;101786.63;4988520;28;4187;-69
2023/06/24 01:45:45;;;;;;;;;;;;;;;24.33;66.64;101780.84;5001676;28;4078;-70
2023/06/24 01:48:13;;;;;;;;;;;;;;;24.34;66.58;101776.53;4985096;28;4182;-69
2023/06/24 01:50:39;;;;;;;;;;;;;;;24.33;66.25;101781.59;4984086;28;4088;-69
2023/06/24 01:53:06;;;;;;;;;;;;;;;24.33;66.34;101784.47;4981916;28;4056;-69
2023/06/24 01:55:32;;;;;;;;;;;;;;;24.34;66.13;101783.06;4986054;28;4360;-69
2023/06/24 01:57:59;;;;;;;;;;;;;;;24.36;66.40;101785.31;4983696;28;4160;-70
2023/06/24 02:00:26;;;;;;;;;;;;;;;24.35;66.11;101783.81;5000445;28;4189;-70
2023/06/24 02:02:52;;;;;;;;;;;;;;;24.36;66.12;101788.22;4984901;28;4117;-69
2023/06/24 02:05:19;;;;;;;;;;;;;;;24.35;66.37;101780.91;4998803;28;4135;-69
2023/06/24 02:07:46;;;;;;;;;;;;;;;24.34;66.16;101783.06;4987508;28;4134;-69
2023/06/24 02:10:12;;;;;;;;;;;;;;;24.34;66.55;101776.53;4983946;28;5389;-70
2023/06/24 02:12:38;;;;;;;;;;;;;;;24.34;66.40;101776.53;4985200;28;4322;-69
2023/06/24 02:15:06;;;;;;;;;;;;;;;24.35;66.18;101772.22;4985862;28;4415;-70
2023/06/24 02:17:33;;;;;;;;;;;;;;;24.34;66.24;101776.53;5002294;28;4004;-69
2023/06/24 02:20:00;;;;;;;;;;;;;;;24.34;66.40;101770.75;5004249;28;4062;-69
2023/06/24 02:22:26;;;;;;;;;;;;;;;24.33;66.65;101769.25;4988019;28;4140;-69
2023/06/24 02:24:52;;;;;;;;;;;;;;;24.34;66.34;101767.84;4984582;28;4151;-70
2023/06/24 02:27:19;;;;;;;;;;;;;;;24.34;66.36;101764.97;4986080;28;3925;-69
2023/06/24 02:29:46;;;;;;;;;;;;;;;24.33;66.28;101763.47;4988014;28;4066;-69
2023/06/24 02:32:12;;;;;;;;;;;;;;;24.32;66.55;101756.19;4981838;28;4291;-69
2023/06/24 02:34:39;;;;;;;;;;;;;;;24.34;66.21;101765.69;5000388;28;3996;-69
2023/06/24 02:37:05;;;;;;;;;;;;;;;24.37;66.51;101766.53;4983613;28;4100;-69
2023/06/24 02:39:32;;;;;;;;;;;;;;;24.37;66.59;101767.31;4984136;28;4070;-69
2023/06/24 02:41:59;;;;;;;;;;;;;;;24.38;66.69;101770.94;4978183;28;4049;-68
2023/06/24 02:44:25;;;;;;;;;;;;;;;24.35;66.88;101775.88;4982080;28;4104;-70
2023/06/24 02:46:52;;;;;;;;;;;;;;;24.35;66.93;101772.22;4986949;28;4161;-69
2023/06/24 02:49:18;;;;;;;;;;;;;;;24.34;66.79;101773.63;4984050;28;4306;-70
2023/06/24 02:51:45;;;;;;;;;;;;;;;24.34;66.84;101788.13;4998540;28;4049;-69
2023/06/24 02:54:12;;;;;;;;;;;;;;;24.33;66.87;101789.53;4999265;28;4054;-69
2023/06/24 02:56:59;;;;;;;;;;;;;;;24.32;66.79;101797.44;4991866;28;4324;-69
2023/06/24 02:59:41;;;;;;;;;;;;;;;24.34;66.78;101796.78;4996706;28;3987;-69
2023/06/24 03:02:11;;;;;;;;;;;;;;;24.32;66.52;101800.34;4997493;28;4259;-69
2023/06/24 03:04:39;;;;;;;;;;;;;;;24.33;66.58;101804.00;4995840;28;4110;-69
2023/06/24 03:07:05;;;;;;;;;;;;;;;24.32;66.48;101808.28;4990920;28;4098;-69
2023/06/24 03:09:33;;;;;;;;;;;;;;;24.32;66.42;101811.91;4988048;28;4083;-69
2023/06/24 03:12:00;;;;;;;;;;;;;;;24.32;66.63;101814.06;4985049;28;4205;-69
2023/06/24 03:14:37;;;;;;;;;;;;;;;24.31;66.48;101816.22;4980794;28;5258;-68
2023/06/24 03:17:03;;;;;;;;;;;;;;;24.30;66.44;101822.66;4982693;28;4501;-68
2023/06/24 03:19:29;;;;;;;;;;;;;;;24.32;66.49;101834.34;4982985;28;4245;-68
2023/06/24 03:21:56;;;;;;;;;;;;;;;24.31;66.49;101818.38;4985247;28;4315;-68
2023/06/24 03:24:23;;;;;;;;;;;;;;;24.32;66.30;101828.53;4981259;28;4173;-68
2023/06/24 03:26:55;;;;;;;;;;;;;;;24.32;66.30;101822.75;4984017;28;4067;-69
2023/06/24 03:29:25;;;;;;;;;;;;;;;24.33;66.36;101815.59;5000746;28;4099;-69
2023/06/24 03:31:59;;;;;;;;;;;;;;;24.32;66.36;101820.59;4986014;28;4161;-69
2023/06/24 03:34:27;;;;;;;;;;;;;;;24.32;66.47;101823.50;5000501;28;3968;-69
2023/06/24 03:36:56;;;;;;;;;;;;;;;24.32;66.24;101816.97;4999769;28;4290;-69
2023/06/24 03:39:24;;;;;;;;;;;;;;;24.32;66.19;101820.59;4987275;28;4106;-69
2023/06/24 03:41:51;;;;;;;;;;;;;;;24.33;66.36;101830.06;5003651;28;4147;-69
2023/06/24 03:44:17;;;;;;;;;;;;;;;24.32;66.26;101840.13;4999882;28;4166;-69
2023/06/24 03:46:44;;;;;;;;;;;;;;;24.31;66.37;101841.53;4995523;28;4239;-69
2023/06/24 03:49:11;;;;;;;;;;;;;;;24.31;66.39;101844.44;4998231;28;4206;-69
2023/06/24 03:51:38;;;;;;;;;;;;;;;24.32;66.25;101837.22;4981520;28;4198;-69
2023/06/24 03:54:04;;;;;;;;;;;;;;;24.32;66.50;101845.91;4998192;28;4037;-69
2023/06/24 03:56:31;;;;;;;;;;;;;;;24.31;66.49;101841.53;4984951;28;4091;-70
2023/06/24 03:58:57;;;;;;;;;;;;;;;24.32;65.98;101843.03;4993492;28;4257;-69
2023/06/24 04:01:25;;;;;;;;;;;;;;;24.31;66.33;101850.22;5001892;28;4057;-70
2023/06/24 04:03:51;;;;;;;;;;;;;;;24.31;66.55;101844.44;4985930;28;4326;-69
2023/06/24 04:06:17;;;;;;;;;;;;;;;24.30;66.30;101840.03;4986515;28;4175;-70
2023/06/24 04:08:44;;;;;;;;;;;;;;;24.31;66.25;101845.16;4983889;28;4225;-69
2023/06/24 04:11:11;;;;;;;;;;;;;;;24.29;66.21;101845.06;4983142;28;4167;-69
2023/06/24 04:13:38;;;;;;;;;;;;;;;24.28;66.32;101837.81;4983517;28;4260;-69
2023/06/24 04:16:04;;;;;;;;;;;;;;;24.30;66.31;101851.59;4980649;28;4175;-68
2023/06/24 04:18:32;;;;;;;;;;;;;;;24.29;66.32;101855.91;5002292;28;4872;-69
2023/06/24 04:20:59;;;;;;;;;;;;;;;24.28;66.31;101842.81;4987352;28;4446;-68
2023/06/24 04:23:25;;;;;;;;;;;;;;;24.29;66.11;101845.06;5002938;28;4194;-69
2023/06/24 04:25:52;;;;;;;;;;;;;;;24.29;66.22;101850.13;4993072;28;4119;-69
2023/06/24 04:28:20;;;;;;;;;;;;;;;24.29;66.16;101853.03;4990489;28;4127;-69
2023/06/24 04:30:46;;;;;;;;;;;;;;;24.29;66.13;101867.50;4986259;28;4258;-69
2023/06/24 04:33:13;;;;;;;;;;;;;;;24.29;66.00;101858.81;4983858;28;4171;-69
2023/06/24 04:35:39;;;;;;;;;;;;;;;24.28;66.01;101860.97;4985695;28;4066;-69
2023/06/24 04:38:06;;;;;;;;;;;;;;;24.28;66.35;101857.31;4984490;28;4202;-69
2023/06/24 04:40:32;;;;;;;;;;;;;;;24.27;65.97;101855.81;4986763;28;3982;-68
2023/06/24 04:42:59;;;;;;;;;;;;;;;24.29;65.99;101858.81;4982993;28;4721;-69
2023/06/24 04:45:25;;;;;;;;;;;;;;;24.30;65.88;101863.19;4986546;28;4108;-70
2023/06/24 04:47:52;;;;;;;;;;;;;;;24.28;66.06;101860.97;4987989;28;4099;-70
2023/06/24 04:50:18;;;;;;;;;;;;;;;24.29;65.61;101867.50;4983806;28;4130;-69
2023/06/24 04:52:44;;;;;;;;;;;;;;;24.28;66.01;101860.19;4987230;28;4296;-69
2023/06/24 04:55:11;;;;;;;;;;;;;;;24.28;66.30;101871.78;4989445;28;4084;-70
2023/06/24 04:57:37;;;;;;;;;;;;;;;24.28;65.98;101877.56;4987413;28;4695;-69
2023/06/24 05:00:04;;;;;;;;;;;;;;;24.27;66.01;101890.56;4983292;28;4150;-70
2023/06/24 05:02:31;;;;;;;;;;;;;;;24.29;65.97;101890.66;4985187;28;4429;-70
2023/06/24 05:04:57;;;;;;;;;;;;;;;24.29;66.12;101881.97;4985893;28;4397;-69
2023/06/24 05:07:24;;;;;;;;;;;;;;;24.27;66.35;101884.75;4984148;28;4117;-69
2023/06/24 05:09:51;;;;;;;;;;;;;;;24.28;66.33;101883.34;4983408;28;4040;-69
2023/06/24 05:12:17;;;;;;;;;;;;;;;24.27;66.37;101890.56;4986121;28;4219;-69
2023/06/24 05:14:44;;;;;;;;;;;;;;;24.27;66.45;101893.44;4987632;28;4185;-69
2023/06/24 05:17:10;;;;;;;;;;;;;;;24.25;66.64;101897.72;4984376;28;4157;-69
2023/06/24 05:19:37;;;;;;;;;;;;;;;24.26;66.51;101892.69;4987837;28;4123;-69
2023/06/24 05:22:03;;;;;;;;;;;;;;;24.26;66.49;101895.59;4982832;28;4127;-68
2023/06/24 05:24:30;;;;;;;;;;;;;;;24.26;66.61;101892.69;4985253;28;3964;-69
2023/06/24 05:26:56;;;;;;;;;;;;;;;24.27;66.40;101887.66;4979579;28;4258;-68
2023/06/24 05:29:22;;;;;;;;;;;;;;;24.25;66.36;101885.41;4985231;28;4217;-68
2023/06/24 05:31:49;;;;;;;;;;;;;;;24.25;66.34;101891.94;4988130;28;4175;-69
2023/06/24 05:34:15;;;;;;;;;;;;;;;24.25;66.45;101891.19;4985476;28;4143;-69
2023/06/24 05:36:42;;;;;;;;;;;;;;;24.25;66.46;101902.78;4985424;28;4304;-69
2023/06/24 05:39:09;;;;;;;;;;;;;;;24.24;66.37;101899.13;4983582;28;4036;-69
2023/06/24 05:41:36;;;;;;;;;;;;;;;24.25;66.48;101902.78;4983385;28;4038;-69
2023/06/24 05:44:03;;;;;;;;;;;;;;;24.24;66.32;101904.94;4986632;28;4134;-69
2023/06/24 05:46:29;;;;;;;;;;;;;;;24.25;66.43;101897.72;4983065;28;4200;-68
2023/06/24 05:48:55;;;;;;;;;;;;;;;24.26;66.53;101892.69;4983018;28;4089;-68
2023/06/24 05:51:22;;;;;;;;;;;;;;;24.27;66.43;101899.22;4982180;28;4183;-69
2023/06/24 05:53:49;;;;;;;;;;;;;;;24.27;66.45;101890.56;4985284;28;4185;-69
2023/06/24 05:56:16;;;;;;;;;;;;;;;24.27;66.44;101893.44;4983885;28;4308;-69
2023/06/24 05:58:42;;;;;;;;;;;;;;;24.28;66.38;101906.50;4981263;28;4910;-68
2023/06/24 06:01:11;;;;;;;;;;;;;;;24.26;66.43;101898.50;4982243;28;4198;-68
2023/06/24 06:03:38;;;;;;;;;;;;;;;24.25;66.12;101900.63;4981229;28;4253;-69
2023/06/24 06:06:04;;;;;;;;;;;;;;;24.25;66.69;101903.50;4983900;28;4158;-69
2023/06/24 06:08:31;;;;;;;;;;;;;;;24.27;66.37;101899.22;4984949;28;4241;-68
2023/06/24 06:10:57;;;;;;;;;;;;;;;24.25;66.44;101896.97;4987227;28;4210;-69
2023/06/24 06:13:23;;;;;;;;;;;;;;;24.26;66.48;101892.69;4981699;28;4290;-69
2023/06/24 06:15:50;;;;;;;;;;;;;;;24.25;66.32;101897.72;4985683;28;3991;-69
2023/06/24 06:18:16;;;;;;;;;;;;;;;24.24;66.30;101899.13;4985696;28;4055;-68
2023/06/24 06:20:43;;;;;;;;;;;;;;;24.25;66.03;101894.84;4985616;28;4142;-68
2023/06/24 06:23:09;;;;;;;;;;;;;;;24.24;66.13;101907.06;4979415;28;4125;-68
2023/06/24 06:25:37;;;;;;;;;;;;;;;24.24;66.04;101902.03;4984681;28;4030;-68
2023/06/24 06:28:03;;;;;;;;;;;;;;;24.22;65.98;101910.63;4987240;28;4058;-68
2023/06/24 06:30:30;;;;;;;;;;;;;;;24.24;65.72;101907.81;4989881;28;4000;-69
2023/06/24 06:32:56;;;;;;;;;;;;;;;24.24;66.10;101907.81;4991590;28;4281;-69
2023/06/24 06:35:23;;;;;;;;;;;;;;;24.23;65.71;101915.03;4983848;28;4180;-69
2023/06/24 06:37:53;;;;;;;;;;;;;;;24.24;65.63;101909.97;4980002;28;4265;-69
2023/06/24 06:40:22;;;;;;;;;;;;;;;24.23;65.66;101906.34;4984825;28;4097;-69
2023/06/24 06:42:49;;;;;;;;;;;;;;;24.25;65.72;101911.47;4987398;28;4088;-71
2023/06/24 06:45:15;;;;;;;;;;;;;;;24.24;65.98;101907.06;4990290;28;4106;-69
2023/06/24 06:47:42;;;;;;;;;;;;;;;24.24;66.01;101907.06;4981206;28;4478;-70
2023/06/24 06:50:08;;;;;;;;;;;;;;;24.24;65.93;101902.03;4982646;28;4126;-70
2023/06/24 06:52:35;;;;;;;;;;;;;;;24.25;66.01;101896.97;4989792;28;4123;-70
2023/06/24 06:55:01;;;;;;;;;;;;;;;24.25;65.83;101894.09;4985203;28;4099;-69
2023/06/24 06:57:27;;;;;;;;;;;;;;;24.22;65.46;101904.81;4986571;28;4269;-69
2023/06/24 06:59:54;;;;;;;;;;;;;;;24.21;65.83;101903.34;4980539;28;4186;-68
2023/06/24 07:02:20;;;;;;;;;;;;;;;24.06;64.65;101904.06;4980073;28;4022;-67
2023/06/24 07:04:47;;;;;;;;;;;;;;;23.45;63.04;101906.84;4982404;28;4082;-74
2023/06/24 07:07:14;;;;;;;;;;;;;;;21.67;64.14;101900.88;4984600;28;4499;-75
2023/06/24 07:09:40;;;;;;;;;;;;;;;20.60;65.92;101908.22;4984251;28;4024;-81
2023/06/24 07:12:07;;;;;;;;;;;;;;;20.85;66.94;101902.59;4978075;28;3992;-66
2023/06/24 07:14:33;;;;;;;;;;;;;;;21.51;64.88;101901.47;4983557;28;4144;-64
2023/06/24 07:17:00;;;;;;;;;;;;;;;21.00;64.76;101901.28;4984736;28;4229;-63
2023/06/24 07:19:26;;;;;;;;;;;;;;;20.88;66.41;101918.59;4983967;28;4236;-64
2023/06/24 07:21:52;;;;;;;;;;;;;;;20.87;67.19;101916.34;4987268;28;4345;-63
2023/06/24 07:24:19;;;;;;;;;;;;;;;21.03;66.96;101908.69;4983356;28;4403;-64
2023/06/24 07:26:45;;;;;;;;;;;;;;;21.13;65.90;101915.06;4983089;28;4188;-65
2023/06/24 07:29:12;;;;;;;;;;;;;;;19.90;67.16;101923.91;4981507;28;4192;-64
2023/06/24 07:31:38;;;;;;;;;;;;;;;21.09;64.64;101925.59;4983167;28;4163;-62
2023/06/24 07:34:05;;;;;;;;;;;;;;;22.09;61.82;101928.53;4983943;28;4751;-61
2023/06/24 07:36:31;;;;;;;;;;;;;;;22.47;61.31;101926.31;4984072;28;4421;-61
2023/06/24 07:38:57;;;;;;;;;;;;;;;22.67;60.28;101928.78;4985054;28;4107;-61
2023/06/24 07:41:24;;;;;;;;;;;;;;;22.83;60.00;101921.00;4988488;28;4258;-63
2023/06/24 07:43:50;;;;;;;;;;;;;;;22.97;59.90;101926.78;4985030;28;4203;-64
2023/06/24 07:46:17;;;;;;;;;;;;;;;22.98;60.05;101923.25;4983316;28;4717;-64
2023/06/24 07:48:44;;;;;;;;;;;;;;;23.09;60.04;101918.00;4984286;28;4142;-67
2023/06/24 07:51:10;;;;;;;;;;;;;;;23.15;59.70;101918.34;4979599;28;4230;-68
2023/06/24 07:53:36;;;;;;;;;;;;;;;23.01;59.98;101924.13;4980005;28;4067;-67
2023/06/24 07:56:03;;;;;;;;;;;;;;;23.04;59.44;101927.88;4975552;28;4300;-68
2023/06/24 07:58:29;;;;;;;;;;;;;;;23.00;59.12;101929.16;4975079;28;4234;-63
2023/06/24 08:00:56;;;;;;;;;;;;;;;23.13;58.79;101935.56;4981558;28;4381;-63
2023/06/24 08:03:22;;;;;;;;;;;;;;;23.19;58.54;101930.84;4981688;28;4088;-63
2023/06/24 08:05:49;;;;;;;;;;;;;;;23.25;58.36;101923.88;4988151;28;4037;-63
2023/06/24 08:08:19;;;;;;;;;;;;;;;23.29;58.29;101929.88;4989289;28;4113;-63
2023/06/24 08:10:45;;;;;;;;;;;;;;;23.31;58.12;101922.06;4984335;28;3990;-63
2023/06/24 08:13:12;;;;;;;;;;;;;;;23.34;58.51;101937.34;4989350;28;4082;-63
2023/06/24 08:15:38;;;;;;;;;;;;;;;23.36;58.52;101935.31;4982941;28;4176;-63
2023/06/24 08:18:07;;;;;;;;;;;;;;;23.39;58.57;101933.31;4985669;28;4052;-63
2023/06/24 08:20:34;;;;;;;;;;;;;;;23.40;58.70;101940.56;4983927;28;4001;-63
2023/06/24 08:23:00;;;;;;;;;;;;;;;23.41;58.76;101930.53;4986498;28;4226;-63
2023/06/24 08:25:27;;;;;;;;;;;;;;;23.41;58.90;101928.38;4984754;28;4046;-63
2023/06/24 08:27:53;;;;;;;;;;;;;;;23.42;58.93;101932.75;4985175;28;4193;-63
2023/06/24 08:30:19;;;;;;;;;;;;;;;23.44;58.95;101940.78;4983177;28;4129;-62
2023/06/24 08:32:46;;;;;;;;;;;;;;;23.45;59.13;101941.53;4982565;28;4378;-63
2023/06/24 08:35:12;;;;;;;;;;;;;;;23.46;59.40;101946.66;4982182;28;4102;-63
2023/06/24 08:37:39;;;;;;;;;;;;;;;23.47;59.17;101947.41;4982498;28;4190;-63
2023/06/24 08:40:05;;;;;;;;;;;;;;;23.48;59.17;101940.22;4983322;28;4138;-63
2023/06/24 08:42:32;;;;;;;;;;;;;;;23.47;59.39;101945.25;4984824;28;4396;-63
2023/06/24 08:44:58;;;;;;;;;;;;;;;23.49;59.50;101944.63;4982089;28;4213;-63
2023/06/24 08:47:25;;;;;;;;;;;;;;;23.49;59.52;101948.25;4992696;28;4194;-63
2023/06/24 08:49:55;;;;;;;;;;;;;;;23.50;59.63;101949.78;5001226;28;4114;-63
2023/06/24 08:52:21;;;;;;;;;;;;;;;23.51;59.46;101944.72;4987049;28;4036;-63
2023/06/24 08:54:50;;;;;;;;;;;;;;;23.51;59.70;101948.38;5006000;28;4178;-63
2023/06/24 08:57:16;;;;;;;;;;;;;;;23.52;59.68;101943.31;4984776;28;4165;-63
2023/06/24 08:59:43;;;;;;;;;;;;;;;23.53;59.58;101944.84;4986740;28;4219;-63
2023/06/24 09:02:11;;;;;;;;;;;;;;;23.53;59.52;101948.47;4988187;28;4306;-63
2023/06/24 09:04:37;;;;;;;;;;;;;;;23.53;59.83;101942.69;4990369;28;4120;-65
2023/06/24 09:07:04;;;;;;;;;;;;;;;23.55;59.76;101950.72;4986080;28;4150;-65
2023/06/24 09:09:34;;;;;;;;;;;;;;;23.55;60.17;101957.25;4985596;28;4206;-65
2023/06/24 09:12:01;;;;;;;;;;;;;;;23.56;60.18;101947.16;5000450;28;4396;-65
2023/06/24 09:14:28;;;;;;;;;;;;;;;23.56;60.20;101952.94;4985774;28;4156;-64
2023/06/24 09:17:00;;;;;;;;;;;;;;;23.56;60.34;101955.09;4984308;28;4256;-65
2023/06/24 09:19:36;;;;;;;;;;;;;;;23.55;60.59;101950.72;4984967;28;4290;-64
2023/06/24 09:22:02;;;;;;;;;;;;;;;23.55;60.40;101944.94;4987796;28;4123;-65
2023/06/24 09:24:32;;;;;;;;;;;;;;;23.56;60.42;101946.44;4989850;28;4505;-64
2023/06/24 09:26:59;;;;;;;;;;;;;;;23.57;60.39;101947.91;4984654;28;4024;-65
2023/06/24 09:29:26;;;;;;;;;;;;;;;23.57;60.50;101948.69;4987686;28;4538;-65
2023/06/24 09:31:57;;;;;;;;;;;;;;;23.58;60.72;101950.16;4986379;28;4064;-66
2023/06/24 09:34:23;;;;;;;;;;;;;;;23.59;60.45;101945.13;4993811;28;4060;-65
2023/06/24 09:36:53;;;;;;;;;;;;;;;23.60;60.65;101943.75;4986501;28;4215;-65
2023/06/24 09:39:22;;;;;;;;;;;;;;;23.60;60.53;101940.84;4986287;28;3965;-64
2023/06/24 09:41:56;;;;;;;;;;;;;;;23.61;60.56;101942.34;4988343;28;4218;-65
2023/06/24 09:44:22;;;;;;;;;;;;;;;23.61;60.61;101945.22;4984237;28;4135;-65
2023/06/24 09:46:48;;;;;;;;;;;;;;;23.61;60.69;101948.88;4989059;28;4155;-65
2023/06/24 09:49:15;;;;;;;;;;;;;;;23.63;60.56;101934.50;4992400;28;4134;-65
2023/06/24 09:51:45;;;;;;;;;;;;;;;23.65;60.65;101945.44;4989318;28;4158;-65
2023/06/24 09:54:12;;;;;;;;;;;;;;;23.64;60.81;101941.06;4987477;28;4083;-65
2023/06/24 09:56:48;;;;;;;;;;;;;;;23.64;61.13;101929.50;4986657;28;4335;-64
2023/06/24 09:59:15;;;;;;;;;;;;;;;23.66;61.14;101925.94;4987840;28;4166;-65
2023/06/24 10:01:41;;;;;;;;;;;;;;;23.67;60.91;101922.41;4989342;28;4222;-65
2023/06/24 10:04:08;;;;;;;;;;;;;;;23.68;61.02;101923.16;5000702;28;4194;-64
2023/06/24 10:06:34;;;;;;;;;;;;;;;23.68;61.37;101928.94;4985012;28;4059;-65
2023/06/24 10:09:02;;;;;;;;;;;;;;;23.68;60.95;101923.91;4987797;28;4341;-64
2023/06/24 10:11:28;;;;;;;;;;;;;;;23.69;61.14;101925.41;4992684;28;4146;-64
2023/06/24 10:13:54;;;;;;;;;;;;;;;23.69;61.38;101913.09;4983279;28;4186;-64
2023/06/24 10:16:21;;;;;;;;;;;;;;;23.71;61.37;101916.06;4988582;28;4259;-64
2023/06/24 10:18:48;;;;;;;;;;;;;;;23.71;61.22;101916.06;4988882;28;4177;-65
2023/06/24 10:21:15;;;;;;;;;;;;;;;23.70;61.12;101921.09;4992413;28;4120;-65
2023/06/24 10:23:42;;;;;;;;;;;;;;;23.73;61.22;101928.50;4989734;28;4130;-65
2023/06/24 10:26:09;;;;;;;;;;;;;;;23.73;61.35;101916.94;4982213;28;4055;-65
2023/06/24 10:28:54;;;;;;;;;;;;;;;23.72;61.47;101918.31;4986168;28;4103;-65
2023/06/24 10:31:29;;;;;;;;;;;;;;;23.74;61.45;101906.88;4989620;28;4459;-65
2023/06/24 10:33:57;;;;;;;;;;;;;;;23.74;61.67;101904.00;4994595;28;4022;-65
2023/06/24 10:36:32;;;;;;;;;;;;;;;23.74;61.63;101909.00;4991838;28;4068;-65
2023/06/24 10:38:58;;;;;;;;;;;;;;;23.74;61.83;101904.00;4987911;28;4489;-65
2023/06/24 10:41:25;;;;;;;;;;;;;;;23.76;61.95;101912.03;4989472;28;4174;-65
2023/06/24 10:43:51;;;;;;;;;;;;;;;23.75;62.00;101910.50;4986641;28;4017;-64
2023/06/24 10:46:20;;;;;;;;;;;;;;;23.75;61.86;101905.47;4990620;28;4254;-64
2023/06/24 10:48:46;;;;;;;;;;;;;;;23.77;61.72;101908.47;4989266;28;4428;-64
2023/06/24 10:51:13;;;;;;;;;;;;;;;23.77;61.71;101899.78;4991842;28;4227;-64
2023/06/24 10:53:39;;;;;;;;;;;;;;;23.77;61.95;101902.69;4986899;28;4390;-64
2023/06/24 10:56:06;;;;;;;;;;;;;;;23.77;61.87;101890.38;4987053;28;4623;-64
2023/06/24 10:58:33;;;;;;;;;;;;;;;23.77;61.68;101901.94;4985338;28;4191;-64
2023/06/24 11:01:08;;;;;;;;;;;;;;;23.78;62.15;101894.78;4985246;28;4288;-64
2023/06/24 11:03:35;;;;;;;;;;;;;;;23.78;62.16;101898.41;4984756;28;4230;-64
2023/06/24 11:06:03;;;;;;;;;;;;;;;23.79;61.88;101887.56;4987663;28;4395;-64
2023/06/24 11:08:30;;;;;;;;;;;;;;;23.79;62.13;101893.38;4985621;28;6658;-64
2023/06/24 11:10:56;;;;;;;;;;;;;;;23.79;61.94;101899.88;4987236;28;4175;-65
2023/06/24 11:13:23;;;;;;;;;;;;;;;23.80;61.96;101912.19;4989297;28;4162;-64
2023/06/24 11:15:49;;;;;;;;;;;;;;;23.79;61.90;101899.88;4986793;28;4537;-64
2023/06/24 11:18:16;;;;;;;;;;;;;;;23.80;62.21;101894.84;4985533;28;4174;-64
2023/06/24 11:20:43;;;;;;;;;;;;;;;23.80;61.80;101895.63;5002965;28;4465;-64
2023/06/24 11:23:10;;;;;;;;;;;;;;;23.80;62.24;101898.50;4987451;28;5027;-64
2023/06/24 11:25:40;;;;;;;;;;;;;;;23.80;62.22;101889.06;4983351;28;4182;-64
2023/06/24 11:28:13;;;;;;;;;;;;;;;23.80;62.29;101895.63;4984786;28;4108;-64
2023/06/24 11:30:40;;;;;;;;;;;;;;;23.82;62.42;101889.16;4985835;28;4183;-64
2023/06/24 11:33:06;;;;;;;;;;;;;;;23.81;62.06;101891.31;4980310;28;4203;-64
2023/06/24 11:35:35;;;;;;;;;;;;;;;23.82;61.96;101875.47;4985691;28;4128;-64
2023/06/24 11:38:02;;;;;;;;;;;;;;;23.83;62.13;101879.09;4985802;28;4328;-64
2023/06/24 11:40:30;;;;;;;;;;;;;;;23.82;62.08;101880.47;4986220;28;4147;-64
2023/06/24 11:42:56;;;;;;;;;;;;;;;23.83;62.47;101882.00;4984682;28;4212;-65
2023/06/24 11:45:23;;;;;;;;;;;;;;;23.83;61.98;101879.09;4987562;28;4059;-65
2023/06/24 11:47:50;;;;;;;;;;;;;;;23.83;62.49;101876.22;4986547;28;4207;-65
2023/06/24 11:50:16;;;;;;;;;;;;;;;23.83;62.48;101882.75;4984750;28;4267;-64
2023/06/24 11:52:48;;;;;;;;;;;;;;;23.85;62.28;101881.34;4985965;28;4060;-64
2023/06/24 11:55:16;;;;;;;;;;;;;;;23.85;62.44;101881.34;4987213;28;5041;-64
2023/06/24 11:57:48;;;;;;;;;;;;;;;23.86;62.17;101882.84;4987636;28;4153;-64
2023/06/24 12:00:15;;;;;;;;;;;;;;;23.85;62.50;101878.47;4984461;28;4495;-64
2023/06/24 12:02:41;;;;;;;;;;;;;;;23.85;62.52;101872.69;4984520;28;4246;-65
2023/06/24 12:05:08;;;;;;;;;;;;;;;23.86;62.63;101871.28;4988527;28;4201;-65
2023/06/24 12:07:34;;;;;;;;;;;;;;;23.87;62.43;101869.84;4989290;28;4019;-65
2023/06/24 12:10:01;;;;;;;;;;;;;;;23.87;62.48;101864.06;4985450;28;4095;-65
2023/06/24 12:12:27;;;;;;;;;;;;;;;23.87;62.28;101867.75;4987676;28;4192;-65
2023/06/24 12:14:54;;;;;;;;;;;;;;;23.87;62.41;101876.41;4984206;28;3902;-65
2023/06/24 12:17:20;;;;;;;;;;;;;;;23.87;62.54;101870.63;4985089;28;4171;-65
2023/06/24 12:19:47;;;;;;;;;;;;;;;23.88;62.18;101877.91;5000812;28;4065;-65
2023/06/24 12:22:13;;;;;;;;;;;;;;;23.88;62.67;101863.44;4992953;28;4456;-64
2023/06/24 12:24:39;;;;;;;;;;;;;;;23.89;62.49;101872.84;4987404;28;4027;-64
2023/06/24 12:27:06;;;;;;;;;;;;;;;23.89;62.57;101861.28;4985229;28;4369;-65
2023/06/24 12:29:35;;;;;;;;;;;;;;;23.89;62.59;101867.06;4989197;28;4141;-64
2023/06/24 12:32:01;;;;;;;;;;;;;;;23.89;62.52;101861.28;4990533;28;4164;-65
2023/06/24 12:34:28;;;;;;;;;;;;;;;23.89;62.44;101861.28;4989114;28;4133;-64
2023/06/24 12:36:54;;;;;;;;;;;;;;;23.87;62.44;101861.94;4988499;28;4179;-64
2023/06/24 12:39:21;;;;;;;;;;;;;;;23.89;62.25;101855.50;4989439;28;4211;-64
2023/06/24 12:41:47;;;;;;;;;;;;;;;23.90;62.18;101857.00;4986894;28;4171;-64
2023/06/24 12:44:13;;;;;;;;;;;;;;;23.89;62.19;101856.25;4986468;28;4099;-64
2023/06/24 12:46:40;;;;;;;;;;;;;;;23.89;62.32;101867.84;4991538;28;4240;-64
2023/06/24 12:49:06;;;;;;;;;;;;;;;23.90;62.42;101857.00;4987751;28;4029;-65